Time;durP1;ratioP1;P1;durP2;ratioP2;P2;SDS_P1;SDS_P2;PMS_P1;PMS_P2;Temp;Humidity;BMP_temperature;BMP_pressure;BME280_temperature;BME280_humidity;BME280_pressure;Samples;Min_cycle;Max_cycle;Signal;HPM_P1;HPM_P2
2023/09/13 00:01:30;;;;;;;;;;;19.60;99.90;;;;;;4954242;29;19948;-31
2023/09/13 00:03:58;;;;;;;;;;;19.50;99.90;;;;;;4953092;29;19947;-31
2023/09/13 00:06:24;;;;;;;;;;;19.60;99.90;;;;;;4952179;28;19994;-31
2023/09/13 00:08:51;;;;;;;;;;;19.60;99.90;;;;;;4953525;29;20000;-32
2023/09/13 00:11:18;;;;;;;;;;;19.50;99.90;;;;;;4953689;29;19946;-32
2023/09/13 00:13:46;;;;;;;;;;;19.50;99.90;;;;;;4953224;29;19941;-31
2023/09/13 00:16:12;;;;;;;;;;;19.50;99.90;;;;;;4953031;29;19941;-34
2023/09/13 00:18:39;;;;;;;;;;;19.40;99.90;;;;;;4953006;29;19964;-32
2023/09/13 00:21:09;;;;;;;;;;;19.40;99.90;;;;;;4953834;29;20305;-33
2023/09/13 00:23:35;;;;;;;;;;;19.40;99.90;;;;;;4951517;29;19943;-32
2023/09/13 00:26:02;;;;;;;;;;;19.40;99.90;;;;;;4951461;29;19962;-31
2023/09/13 00:28:29;;;;;;;;;;;19.30;99.90;;;;;;4952613;28;20446;-32
2023/09/13 00:30:57;;;;;;;;;;;19.30;99.90;;;;;;4954102;29;19930;-31
2023/09/13 00:33:24;;;;;;;;;;;19.30;99.90;;;;;;4952670;29;19937;-33
2023/09/13 00:35:55;;;;;;;;;;;19.30;99.90;;;;;;4952530;29;19948;-32
2023/09/13 00:38:22;;;;;;;;;;;19.30;99.90;;;;;;4952495;29;19944;-32
2023/09/13 00:40:48;;;;;;;;;;;19.30;99.90;;;;;;4952818;29;19986;-33
2023/09/13 00:43:15;;;;;;;;;;;19.30;99.90;;;;;;4953425;29;20427;-33
2023/09/13 00:45:41;;;;;;;;;;;19.30;99.90;;;;;;4952503;28;19959;-33
2023/09/13 00:48:10;;;;;;;;;;;19.20;99.90;;;;;;4953013;28;19964;-32
2023/09/13 00:50:37;;;;;;;;;;;19.20;99.90;;;;;;4952295;29;20424;-32
2023/09/13 00:53:04;;;;;;;;;;;19.20;99.90;;;;;;4947279;29;19969;-32
2023/09/13 00:55:31;;;;;;;;;;;19.20;99.90;;;;;;4955745;28;20287;-32
2023/09/13 00:57:58;;;;;;;;;;;19.20;99.90;;;;;;4956095;29;19946;-32
2023/09/13 01:00:26;;;;;;;;;;;19.10;99.90;;;;;;4957223;29;19948;-31
2023/09/13 01:02:53;;;;;;;;;;;19.10;99.90;;;;;;4956442;29;19967;-32
2023/09/13 01:05:21;;;;;;;;;;;19.10;99.90;;;;;;4955164;28;19967;-31
2023/09/13 01:07:48;;;;;;;;;;;19.00;99.90;;;;;;4936589;29;19945;-31
2023/09/13 01:10:15;;;;;;;;;;;19.00;99.90;;;;;;4949552;29;20328;-32
2023/09/13 01:12:41;;;;;;;;;;;19.00;99.90;;;;;;4957163;29;19941;-33
2023/09/13 01:15:08;;;;;;;;;;;19.00;99.90;;;;;;4955712;28;20406;-31
2023/09/13 01:17:38;;;;;;;;;;;18.90;99.90;;;;;;4955709;29;19954;-31
2023/09/13 01:20:09;;;;;;;;;;;18.90;99.90;;;;;;4955318;29;20307;-31
2023/09/13 01:22:49;;;;;;;;;;;18.90;99.90;;;;;;4953389;29;19943;-32
2023/09/13 01:25:22;;;;;;;;;;;18.90;99.90;;;;;;4955544;29;20011;-32
2023/09/13 01:27:49;;;;;;;;;;;18.90;99.90;;;;;;4955803;29;19951;-31
2023/09/13 01:30:18;;;;;;;;;;;18.80;99.90;;;;;;4955069;29;19943;-31
2023/09/13 01:32:45;;;;;;;;;;;18.80;99.90;;;;;;4955764;29;19945;-32
2023/09/13 01:35:12;;;;;;;;;;;18.80;99.90;;;;;;4954961;29;19950;-32
2023/09/13 01:37:38;;;;;;;;;;;18.80;99.90;;;;;;4955859;29;20103;-31
2023/09/13 01:40:06;;;;;;;;;;;18.80;99.90;;;;;;4955395;29;19942;-31
2023/09/13 01:42:33;;;;;;;;;;;18.70;99.90;;;;;;4955370;29;19996;-30
2023/09/13 01:45:00;;;;;;;;;;;18.70;99.90;;;;;;4953488;29;20039;-31
2023/09/13 01:47:28;;;;;;;;;;;18.70;99.90;;;;;;4930554;29;20001;-31
2023/09/13 01:49:54;;;;;;;;;;;18.70;99.90;;;;;;4956029;28;19964;-32
2023/09/13 01:52:21;;;;;;;;;;;18.60;99.90;;;;;;4956539;29;20047;-31
2023/09/13 01:54:48;;;;;;;;;;;18.60;99.90;;;;;;4955996;29;19937;-33
2023/09/13 01:57:14;;;;;;;;;;;18.60;99.90;;;;;;4955586;29;19965;-32
2023/09/13 01:59:41;;;;;;;;;;;18.60;99.90;;;;;;4955340;29;19971;-32
2023/09/13 02:02:08;;;;;;;;;;;18.50;99.90;;;;;;4956039;29;19945;-31
2023/09/13 02:04:36;;;;;;;;;;;18.50;99.90;;;;;;4956094;29;19941;-31
2023/09/13 02:07:03;;;;;;;;;;;18.50;99.90;;;;;;4937929;29;19964;-31
2023/09/13 02:09:30;;;;;;;;;;;18.50;99.90;;;;;;4953977;28;20314;-32
2023/09/13 02:11:56;;;;;;;;;;;18.50;99.90;;;;;;4954281;29;19930;-32
2023/09/13 02:14:23;;;;;;;;;;;18.50;99.90;;;;;;4954893;29;19941;-32
2023/09/13 02:16:50;;;;;;;;;;;18.50;99.90;;;;;;4954559;29;19942;-32
2023/09/13 02:19:17;;;;;;;;;;;18.50;99.90;;;;;;4956149;29;19950;-31
2023/09/13 02:21:46;;;;;;;;;;;18.50;99.90;;;;;;4956026;29;19942;-31
2023/09/13 02:24:12;;;;;;;;;;;18.40;99.90;;;;;;4954999;29;19948;-32
2023/09/13 02:26:40;;;;;;;;;;;18.40;99.90;;;;;;4952823;29;20318;-31
2023/09/13 02:29:06;;;;;;;;;;;18.30;99.90;;;;;;4954914;29;20048;-31
2023/09/13 02:31:33;;;;;;;;;;;18.30;99.90;;;;;;4954619;29;19926;-31
2023/09/13 02:34:00;;;;;;;;;;;18.30;99.90;;;;;;4956030;29;19964;-32
2023/09/13 02:36:26;;;;;;;;;;;18.30;99.90;;;;;;4954313;29;19949;-32
2023/09/13 02:38:54;;;;;;;;;;;18.30;99.90;;;;;;4954645;29;20445;-32
2023/09/13 02:41:21;;;;;;;;;;;18.30;99.90;;;;;;4955773;29;20282;-31
2023/09/13 02:43:48;;;;;;;;;;;18.30;99.90;;;;;;4938389;29;19941;-32
2023/09/13 02:46:14;;;;;;;;;;;18.30;99.90;;;;;;4954294;29;19969;-31
2023/09/13 02:48:41;;;;;;;;;;;18.30;99.90;;;;;;4938476;29;19950;-31
2023/09/13 02:51:11;;;;;;;;;;;18.30;99.90;;;;;;4938339;28;19943;-31
2023/09/13 02:53:38;;;;;;;;;;;18.20;99.90;;;;;;4953616;29;19996;-32
2023/09/13 02:56:06;;;;;;;;;;;18.20;99.90;;;;;;4955226;29;19941;-32
2023/09/13 02:58:33;;;;;;;;;;;18.10;99.90;;;;;;4938245;29;19945;-32
2023/09/13 03:01:03;;;;;;;;;;;18.10;99.90;;;;;;4954934;29;19945;-31
2023/09/13 03:03:30;;;;;;;;;;;18.10;99.90;;;;;;4952883;29;19927;-31
2023/09/13 03:06:05;;;;;;;;;;;18.10;99.90;;;;;;4954665;29;20509;-31
2023/09/13 03:08:32;;;;;;;;;;;18.10;99.90;;;;;;4954152;29;19996;-31
2023/09/13 03:10:58;;;;;;;;;;;18.10;99.90;;;;;;4954980;29;20388;-33
2023/09/13 03:13:26;;;;;;;;;;;18.10;99.90;;;;;;4953372;28;19971;-33
2023/09/13 03:15:53;;;;;;;;;;;18.10;99.90;;;;;;4937253;29;20166;-32
2023/09/13 03:18:20;;;;;;;;;;;18.10;99.90;;;;;;4936500;29;19947;-33
2023/09/13 03:20:46;;;;;;;;;;;18.10;99.90;;;;;;4937571;29;20078;-32
2023/09/13 03:23:13;;;;;;;;;;;18.10;99.90;;;;;;4948156;28;19939;-31
2023/09/13 03:25:40;;;;;;;;;;;18.10;99.90;;;;;;4954514;29;19964;-31
2023/09/13 03:28:06;;;;;;;;;;;18.10;99.90;;;;;;4953267;29;19945;-32
2023/09/13 03:30:36;;;;;;;;;;;18.10;99.90;;;;;;4956752;28;19998;-32
2023/09/13 03:33:03;;;;;;;;;;;18.10;99.90;;;;;;4954527;28;19949;-32
2023/09/13 03:35:29;;;;;;;;;;;18.10;99.90;;;;;;4953649;29;20025;-32
2023/09/13 03:37:56;;;;;;;;;;;18.10;99.90;;;;;;4944766;29;19950;-33
2023/09/13 03:40:23;;;;;;;;;;;18.00;99.90;;;;;;4933351;29;19965;-32
2023/09/13 03:42:49;;;;;;;;;;;18.00;99.90;;;;;;4948390;28;19926;-32
2023/09/13 03:45:16;;;;;;;;;;;18.10;99.90;;;;;;4954018;29;19937;-32
2023/09/13 03:47:44;;;;;;;;;;;18.00;99.90;;;;;;4953536;29;20364;-31
2023/09/13 03:50:11;;;;;;;;;;;18.00;99.90;;;;;;4952322;29;20120;-31
2023/09/13 03:52:38;;;;;;;;;;;18.00;99.90;;;;;;4950295;28;19951;-31
2023/09/13 03:55:06;;;;;;;;;;;18.00;99.90;;;;;;4951644;29;20360;-32
2023/09/13 03:57:33;;;;;;;;;;;17.90;99.90;;;;;;4935592;29;20030;-31
2023/09/13 03:59:59;;;;;;;;;;;17.90;99.90;;;;;;4942398;29;20425;-31
2023/09/13 04:02:26;;;;;;;;;;;17.90;99.90;;;;;;4950590;28;20460;-32
2023/09/13 04:04:55;;;;;;;;;;;17.90;99.90;;;;;;4950753;29;19948;-31
2023/09/13 04:07:22;;;;;;;;;;;17.90;99.90;;;;;;4951995;29;19965;-31
2023/09/13 04:09:48;;;;;;;;;;;17.80;99.90;;;;;;4951675;29;19927;-31
2023/09/13 04:12:15;;;;;;;;;;;17.80;99.90;;;;;;4953146;29;19949;-31
2023/09/13 04:14:42;;;;;;;;;;;17.80;99.90;;;;;;4937539;29;19947;-31
2023/09/13 04:17:08;;;;;;;;;;;17.70;99.90;;;;;;4950036;29;19978;-32
2023/09/13 04:19:35;;;;;;;;;;;17.70;99.90;;;;;;4953883;29;20397;-31
2023/09/13 04:22:03;;;;;;;;;;;17.70;99.90;;;;;;4954163;29;19988;-31
2023/09/13 04:24:30;;;;;;;;;;;17.70;99.90;;;;;;4953142;29;19950;-31
2023/09/13 04:26:56;;;;;;;;;;;17.70;99.90;;;;;;4952187;28;20370;-31
2023/09/13 04:29:23;;;;;;;;;;;17.70;99.90;;;;;;4952264;29;19937;-32
2023/09/13 04:31:50;;;;;;;;;;;17.60;99.90;;;;;;4956788;28;19938;-32
2023/09/13 04:34:16;;;;;;;;;;;17.60;99.90;;;;;;4960232;28;19941;-31
2023/09/13 04:36:43;;;;;;;;;;;17.60;99.90;;;;;;4956628;29;19978;-31
2023/09/13 04:39:11;;;;;;;;;;;17.60;99.90;;;;;;4955642;29;19994;-31
2023/09/13 04:41:38;;;;;;;;;;;17.70;99.90;;;;;;4953807;28;19939;-31
2023/09/13 04:44:05;;;;;;;;;;;17.60;99.90;;;;;;4955304;28;19938;-32
2023/09/13 04:46:31;;;;;;;;;;;17.60;99.90;;;;;;4935822;29;19961;-31
2023/09/13 04:48:58;;;;;;;;;;;17.60;99.90;;;;;;4954887;28;20406;-31
2023/09/13 04:51:25;;;;;;;;;;;17.60;99.90;;;;;;4959049;28;19934;-31
2023/09/13 04:53:51;;;;;;;;;;;17.60;99.90;;;;;;4963764;28;20433;-31
2023/09/13 04:56:19;;;;;;;;;;;17.60;99.90;;;;;;4955815;29;20456;-31
2023/09/13 04:58:46;;;;;;;;;;;17.60;99.90;;;;;;4940755;29;19943;-33
2023/09/13 05:01:13;;;;;;;;;;;17.60;99.90;;;;;;4952891;29;20393;-33
2023/09/13 05:03:40;;;;;;;;;;;17.60;99.90;;;;;;4954094;29;20391;-32
2023/09/13 05:06:06;;;;;;;;;;;17.60;99.90;;;;;;4943905;29;19954;-33
2023/09/13 05:08:33;;;;;;;;;;;17.50;99.90;;;;;;4954303;28;19943;-33
2023/09/13 05:11:00;;;;;;;;;;;17.50;99.90;;;;;;4953203;28;19993;-33
2023/09/13 05:13:28;;;;;;;;;;;17.50;99.90;;;;;;4942477;28;19981;-33
2023/09/13 05:15:54;;;;;;;;;;;17.50;99.90;;;;;;4954557;29;19947;-32
2023/09/13 05:18:21;;;;;;;;;;;17.40;99.90;;;;;;4950899;28;19940;-32
2023/09/13 05:20:48;;;;;;;;;;;17.40;99.90;;;;;;4954153;28;19947;-32
2023/09/13 05:23:14;;;;;;;;;;;17.40;99.90;;;;;;4943154;28;19937;-33
2023/09/13 05:25:44;;;;;;;;;;;17.30;99.90;;;;;;4976256;28;20014;-36
2023/09/13 05:28:12;;;;;;;;;;;17.30;99.90;;;;;;4957758;28;20495;-34
2023/09/13 05:30:40;;;;;;;;;;;17.30;99.90;;;;;;4955406;29;19941;-33
2023/09/13 05:33:06;;;;;;;;;;;17.10;99.90;;;;;;4956768;29;19944;-32
2023/09/13 05:35:33;;;;;;;;;;;17.10;99.90;;;;;;4955908;29;19946;-32
2023/09/13 05:38:00;;;;;;;;;;;17.00;99.90;;;;;;4955433;29;19995;-32
2023/09/13 05:40:27;;;;;;;;;;;16.90;99.90;;;;;;4956176;28;19948;-34
2023/09/13 05:42:54;;;;;;;;;;;16.70;99.90;;;;;;4954864;29;19944;-32
2023/09/13 05:45:21;;;;;;;;;;;16.60;99.90;;;;;;4956316;29;19943;-32
2023/09/13 05:47:49;;;;;;;;;;;16.40;99.90;;;;;;4939193;29;19969;-33
2023/09/13 05:50:16;;;;;;;;;;;16.30;99.90;;;;;;4955552;29;19945;-33
2023/09/13 05:52:43;;;;;;;;;;;16.20;99.90;;;;;;4955457;29;19941;-32
2023/09/13 05:55:10;;;;;;;;;;;16.10;99.90;;;;;;4954155;29;19937;-33
2023/09/13 05:57:36;;;;;;;;;;;16.10;99.90;;;;;;4956138;29;19995;-34
2023/09/13 06:00:03;;;;;;;;;;;16.00;99.90;;;;;;4956455;29;20063;-32
2023/09/13 06:02:31;;;;;;;;;;;16.00;99.90;;;;;;4954892;29;19977;-32
2023/09/13 06:04:59;;;;;;;;;;;15.90;99.90;;;;;;4955356;29;20040;-33
2023/09/13 06:07:26;;;;;;;;;;;16.00;99.90;;;;;;4955992;29;19954;-33
2023/09/13 06:09:53;;;;;;;;;;;16.00;99.90;;;;;;4955714;29;19954;-32
2023/09/13 06:12:19;;;;;;;;;;;16.00;99.90;;;;;;4955365;28;20003;-32
2023/09/13 06:14:46;;;;;;;;;;;15.90;99.90;;;;;;4954576;29;19948;-31
2023/09/13 06:17:13;;;;;;;;;;;16.00;99.90;;;;;;4953946;28;19949;-31
2023/09/13 06:19:40;;;;;;;;;;;15.90;99.90;;;;;;4955178;29;19985;-31
2023/09/13 06:22:08;;;;;;;;;;;15.90;99.90;;;;;;4954476;29;19930;-31
2023/09/13 06:24:35;;;;;;;;;;;15.90;99.90;;;;;;4955632;29;20012;-31
2023/09/13 06:27:01;;;;;;;;;;;15.80;99.90;;;;;;4955620;29;19960;-31
2023/09/13 06:29:28;;;;;;;;;;;15.80;99.90;;;;;;4946844;28;19948;-31
2023/09/13 06:31:55;;;;;;;;;;;15.80;99.90;;;;;;4954815;29;19990;-31
2023/09/13 06:34:21;;;;;;;;;;;15.70;99.90;;;;;;4953462;29;19949;-31
2023/09/13 06:36:49;;;;;;;;;;;15.70;99.90;;;;;;4954719;29;19941;-32
2023/09/13 06:39:18;;;;;;;;;;;15.70;99.90;;;;;;4955421;29;19943;-32
2023/09/13 06:41:45;;;;;;;;;;;15.70;99.90;;;;;;4954622;29;19941;-33
2023/09/13 06:44:11;;;;;;;;;;;15.70;99.90;;;;;;4955445;29;20248;-31
2023/09/13 06:46:38;;;;;;;;;;;15.70;99.90;;;;;;4954291;29;19966;-31
2023/09/13 06:49:05;;;;;;;;;;;15.70;99.90;;;;;;4955459;29;20280;-32
2023/09/13 06:51:31;;;;;;;;;;;15.70;99.90;;;;;;4953922;29;19946;-31
2023/09/13 06:53:58;;;;;;;;;;;15.60;99.90;;;;;;4954364;28;19941;-32
2023/09/13 06:56:26;;;;;;;;;;;15.60;99.90;;;;;;4953877;29;19988;-31
2023/09/13 06:58:53;;;;;;;;;;;15.60;99.90;;;;;;4954087;29;20408;-31
2023/09/13 07:01:20;;;;;;;;;;;15.60;99.90;;;;;;4954328;29;19943;-32
2023/09/13 07:03:47;;;;;;;;;;;15.60;99.90;;;;;;4954161;29;20294;-31
2023/09/13 07:06:14;;;;;;;;;;;15.60;99.90;;;;;;4955008;29;19956;-31
2023/09/13 07:08:40;;;;;;;;;;;15.60;99.90;;;;;;4954044;29;19964;-31
2023/09/13 07:11:07;;;;;;;;;;;15.60;99.90;;;;;;4953849;29;20408;-31
2023/09/13 07:13:35;;;;;;;;;;;15.50;99.90;;;;;;4953904;29;19950;-32
2023/09/13 07:16:02;;;;;;;;;;;15.50;99.90;;;;;;4954876;29;19964;-31
2023/09/13 07:18:28;;;;;;;;;;;15.60;99.90;;;;;;4954291;29;20430;-31
2023/09/13 07:20:56;;;;;;;;;;;15.60;99.90;;;;;;4954613;29;19997;-31
2023/09/13 07:23:23;;;;;;;;;;;15.60;99.90;;;;;;4953717;29;19941;-31
2023/09/13 07:25:50;;;;;;;;;;;15.60;99.90;;;;;;4953679;29;19963;-31
2023/09/13 07:28:16;;;;;;;;;;;15.60;99.90;;;;;;4937558;29;20008;-31
2023/09/13 07:30:44;;;;;;;;;;;15.60;99.90;;;;;;4937591;29;19945;-31
2023/09/13 07:33:11;;;;;;;;;;;15.60;99.90;;;;;;4953621;28;19964;-31
2023/09/13 07:35:38;;;;;;;;;;;15.70;99.90;;;;;;4953501;29;20365;-32
2023/09/13 07:38:04;;;;;;;;;;;15.70;99.90;;;;;;4954478;29;19948;-33
2023/09/13 07:40:31;;;;;;;;;;;15.70;99.90;;;;;;4954409;29;19941;-31
2023/09/13 07:42:58;;;;;;;;;;;15.70;99.90;;;;;;4954456;29;19940;-31
2023/09/13 07:45:25;;;;;;;;;;;15.80;99.90;;;;;;4954508;29;20292;-32
2023/09/13 07:47:53;;;;;;;;;;;15.90;99.90;;;;;;4953275;29;20310;-31
2023/09/13 07:50:29;;;;;;;;;;;15.90;99.90;;;;;;4953801;29;19943;-31
2023/09/13 07:52:56;;;;;;;;;;;15.90;99.90;;;;;;4954468;29;19970;-31
2023/09/13 07:55:23;;;;;;;;;;;16.00;99.90;;;;;;4953641;29;19956;-32
2023/09/13 07:57:49;;;;;;;;;;;16.00;99.90;;;;;;4953734;29;19949;-31
2023/09/13 08:00:16;;;;;;;;;;;16.00;99.90;;;;;;4953159;29;19989;-31
2023/09/13 08:02:44;;;;;;;;;;;16.00;99.90;;;;;;4952804;29;20000;-31
2023/09/13 08:05:12;;;;;;;;;;;16.00;99.90;;;;;;4954889;28;20039;-31
2023/09/13 08:07:38;;;;;;;;;;;16.00;99.90;;;;;;4957239;29;20423;-31
2023/09/13 08:10:06;;;;;;;;;;;16.10;99.90;;;;;;4958206;29;19950;-31
2023/09/13 08:12:33;;;;;;;;;;;16.10;99.90;;;;;;4958340;29;19989;-32
2023/09/13 08:14:59;;;;;;;;;;;16.10;99.90;;;;;;4955890;29;19977;-32
2023/09/13 08:17:26;;;;;;;;;;;16.20;99.90;;;;;;4957223;29;19958;-31
2023/09/13 08:19:53;;;;;;;;;;;16.20;99.90;;;;;;4957132;29;19944;-31
2023/09/13 08:22:21;;;;;;;;;;;16.40;99.90;;;;;;4957140;29;19991;-31
2023/09/13 08:24:47;;;;;;;;;;;16.40;99.90;;;;;;4957815;29;19939;-31
2023/09/13 08:27:14;;;;;;;;;;;16.40;99.90;;;;;;4957909;29;19942;-31
2023/09/13 08:29:41;;;;;;;;;;;16.40;99.90;;;;;;4957897;29;19948;-31
2023/09/13 08:32:07;;;;;;;;;;;16.40;99.90;;;;;;4939758;29;19938;-31
2023/09/13 08:34:35;;;;;;;;;;;16.40;99.90;;;;;;4957791;29;19941;-32
2023/09/13 08:37:02;;;;;;;;;;;16.40;99.90;;;;;;4956947;29;19944;-32
2023/09/13 08:39:30;;;;;;;;;;;16.50;99.90;;;;;;4957066;29;20019;-32
2023/09/13 08:41:58;;;;;;;;;;;16.50;99.90;;;;;;4957971;29;19943;-33
2023/09/13 08:44:24;;;;;;;;;;;16.50;99.90;;;;;;4940893;29;19947;-30
2023/09/13 08:46:55;;;;;;;;;;;16.50;99.90;;;;;;4957284;29;19965;-30
2023/09/13 08:49:21;;;;;;;;;;;16.50;99.90;;;;;;4956639;29;20046;-30
2023/09/13 08:51:48;;;;;;;;;;;16.60;99.90;;;;;;4956556;29;19945;-30
2023/09/13 08:54:15;;;;;;;;;;;16.60;99.90;;;;;;4957149;29;19996;-31
2023/09/13 08:56:43;;;;;;;;;;;16.70;99.90;;;;;;4957503;29;19945;-32
2023/09/13 08:59:10;;;;;;;;;;;16.80;99.90;;;;;;4940302;29;19989;-31
2023/09/13 09:01:37;;;;;;;;;;;16.90;99.90;;;;;;4955887;29;19926;-31
2023/09/13 09:04:04;;;;;;;;;;;16.90;99.90;;;;;;4956196;29;20004;-32
2023/09/13 09:06:31;;;;;;;;;;;17.00;99.90;;;;;;4957145;29;20356;-31
2023/09/13 09:08:58;;;;;;;;;;;17.10;99.90;;;;;;4954099;29;19953;-31
2023/09/13 09:11:26;;;;;;;;;;;17.20;99.90;;;;;;4957109;29;19958;-31
2023/09/13 09:13:54;;;;;;;;;;;17.20;99.90;;;;;;4957190;29;19946;-31
2023/09/13 09:16:21;;;;;;;;;;;17.30;99.90;;;;;;4955851;28;19997;-32
2023/09/13 09:18:47;;;;;;;;;;;17.30;99.90;;;;;;4956016;29;19945;-31
2023/09/13 09:21:14;;;;;;;;;;;17.30;99.90;;;;;;4974375;28;19973;-31
2023/09/13 09:23:41;;;;;;;;;;;17.30;99.90;;;;;;4958376;28;19951;-31
2023/09/13 09:26:07;;;;;;;;;;;17.20;99.90;;;;;;4956762;28;19951;-31
2023/09/13 09:28:34;;;;;;;;;;;17.30;99.90;;;;;;4939813;29;19968;-31
2023/09/13 09:31:02;;;;;;;;;;;17.20;99.90;;;;;;4957077;29;20311;-31
2023/09/13 09:33:29;;;;;;;;;;;17.20;99.90;;;;;;4956584;29;19999;-31
2023/09/13 09:35:57;;;;;;;;;;;17.20;99.90;;;;;;4955558;29;19981;-31
2023/09/13 09:38:23;;;;;;;;;;;17.10;99.90;;;;;;4955450;29;19948;-31
2023/09/13 09:40:50;;;;;;;;;;;17.20;99.90;;;;;;4938214;29;19950;-32
2023/09/13 09:43:17;;;;;;;;;;;17.10;99.90;;;;;;4956649;29;20019;-31
2023/09/13 09:45:43;;;;;;;;;;;17.20;99.90;;;;;;4956666;29;19941;-31
2023/09/13 09:48:13;;;;;;;;;;;17.20;99.90;;;;;;4956002;29;20071;-31
2023/09/13 09:50:42;;;;;;;;;;;17.30;99.90;;;;;;4954915;29;19940;-32
2023/09/13 09:53:09;;;;;;;;;;;17.30;99.90;;;;;;4955217;29;19950;-31
2023/09/13 09:55:36;;;;;;;;;;;17.30;99.90;;;;;;4955455;29;19948;-30
2023/09/13 09:58:03;;;;;;;;;;;17.30;99.90;;;;;;4955277;28;20408;-31
2023/09/13 10:00:30;;;;;;;;;;;17.40;99.90;;;;;;4955053;29;19965;-31
2023/09/13 10:02:57;;;;;;;;;;;17.40;99.90;;;;;;4954960;29;20393;-31
2023/09/13 10:05:25;;;;;;;;;;;17.40;99.90;;;;;;4955918;29;20119;-31
2023/09/13 10:07:51;;;;;;;;;;;17.40;99.90;;;;;;4954549;29;20396;-31
2023/09/13 10:10:28;;;;;;;;;;;17.60;99.90;;;;;;4953741;29;20416;-32
2023/09/13 10:12:55;;;;;;;;;;;17.80;99.90;;;;;;4954589;28;20031;-32
2023/09/13 10:15:21;;;;;;;;;;;18.10;99.90;;;;;;4954729;29;19947;-31
2023/09/13 10:17:48;;;;;;;;;;;18.20;99.90;;;;;;4955003;29;19941;-31
2023/09/13 10:20:15;;;;;;;;;;;18.10;99.90;;;;;;4955440;29;19927;-30
2023/09/13 10:22:43;;;;;;;;;;;18.00;99.90;;;;;;4956246;29;20311;-31
2023/09/13 10:25:11;;;;;;;;;;;17.80;99.90;;;;;;4955702;29;19948;-29
2023/09/13 10:27:39;;;;;;;;;;;17.70;99.90;;;;;;4955288;28;19943;-31
2023/09/13 10:30:06;;;;;;;;;;;17.60;99.90;;;;;;4954757;29;20346;-30
2023/09/13 10:32:33;;;;;;;;;;;17.50;99.90;;;;;;4953781;28;20005;-30
2023/09/13 10:35:01;;;;;;;;;;;17.40;99.90;;;;;;4946672;29;19953;-31
2023/09/13 10:37:30;;;;;;;;;;;17.50;99.90;;;;;;4954685;29;19947;-31
2023/09/13 10:40:00;;;;;;;;;;;17.50;99.90;;;;;;4954788;29;20367;-30
2023/09/13 10:42:26;;;;;;;;;;;17.50;99.90;;;;;;4955681;29;19941;-30
2023/09/13 10:44:53;;;;;;;;;;;17.50;99.90;;;;;;4955485;29;19927;-30
2023/09/13 10:47:20;;;;;;;;;;;17.50;99.90;;;;;;4954181;29;19973;-31
2023/09/13 10:49:47;;;;;;;;;;;17.40;99.90;;;;;;4936844;29;20374;-30
2023/09/13 10:52:13;;;;;;;;;;;17.30;99.90;;;;;;4953895;29;19946;-31
2023/09/13 10:54:40;;;;;;;;;;;17.30;99.90;;;;;;4955399;29;20330;-31
2023/09/13 10:57:08;;;;;;;;;;;17.40;99.90;;;;;;4954307;29;19946;-30
2023/09/13 10:59:35;;;;;;;;;;;17.40;99.90;;;;;;4938154;29;20298;-30
2023/09/13 11:02:04;;;;;;;;;;;17.50;99.90;;;;;;4955465;29;19942;-30
2023/09/13 11:04:31;;;;;;;;;;;17.70;99.90;;;;;;4953951;29;19957;-32
2023/09/13 11:06:58;;;;;;;;;;;17.80;99.90;;;;;;4953505;29;19942;-30
2023/09/13 11:09:26;;;;;;;;;;;18.00;99.90;;;;;;4934432;29;19973;-32
2023/09/13 11:11:53;;;;;;;;;;;18.20;99.90;;;;;;4935173;29;19943;-30
2023/09/13 11:14:24;;;;;;;;;;;18.30;99.90;;;;;;4934794;29;19945;-30
2023/09/13 11:16:51;;;;;;;;;;;18.30;99.90;;;;;;4947298;28;19946;-31
2023/09/13 11:19:18;;;;;;;;;;;18.40;99.90;;;;;;4954905;29;19986;-30
2023/09/13 11:21:49;;;;;;;;;;;18.50;99.90;;;;;;4954908;29;19974;-30
2023/09/13 11:24:28;;;;;;;;;;;18.70;99.90;;;;;;4953938;29;20395;-30
2023/09/13 11:26:56;;;;;;;;;;;18.70;99.90;;;;;;4937594;29;19948;-31
2023/09/13 11:29:23;;;;;;;;;;;18.80;99.90;;;;;;4953584;29;20644;-31
2023/09/13 11:31:58;;;;;;;;;;;18.90;99.90;;;;;;4952398;28;19938;-31
2023/09/13 11:34:25;;;;;;;;;;;18.90;99.90;;;;;;4948205;29;19950;-30
2023/09/13 11:36:55;;;;;;;;;;;19.00;99.90;;;;;;4951642;29;19942;-31
2023/09/13 11:39:22;;;;;;;;;;;19.10;99.90;;;;;;4953762;28;19986;-32
2023/09/13 11:41:49;;;;;;;;;;;19.40;99.90;;;;;;4952710;29;20038;-31
2023/09/13 11:44:16;;;;;;;;;;;19.60;99.90;;;;;;4951689;29;19946;-31
2023/09/13 11:46:43;;;;;;;;;;;19.70;99.90;;;;;;4953940;29;20055;-31
2023/09/13 11:49:11;;;;;;;;;;;19.80;99.90;;;;;;4950770;29;19953;-30
2023/09/13 11:51:37;;;;;;;;;;;19.70;99.90;;;;;;4953386;29;20307;-31
2023/09/13 11:54:13;;;;;;;;;;;19.80;99.90;;;;;;4936824;29;20399;-31
2023/09/13 11:56:43;;;;;;;;;;;19.90;99.90;;;;;;4953082;29;19940;-31
2023/09/13 11:59:10;;;;;;;;;;;19.90;99.90;;;;;;4953630;29;19989;-31
2023/09/13 12:01:42;;;;;;;;;;;19.90;99.90;;;;;;4953315;29;20287;-32
2023/09/13 12:04:09;;;;;;;;;;;19.90;99.90;;;;;;4951859;28;20005;-31
2023/09/13 12:06:44;;;;;;;;;;;19.80;99.90;;;;;;4954239;29;19941;-32
2023/09/13 12:09:11;;;;;;;;;;;19.70;99.90;;;;;;4951813;29;20417;-31
2023/09/13 12:11:38;;;;;;;;;;;19.60;99.90;;;;;;4965896;28;20393;-32
2023/09/13 12:14:05;;;;;;;;;;;19.60;99.90;;;;;;4952946;29;20506;-32
2023/09/13 12:16:32;;;;;;;;;;;19.70;99.90;;;;;;4947043;29;20395;-31
2023/09/13 12:18:59;;;;;;;;;;;20.00;99.90;;;;;;4935733;29;19941;-31
2023/09/13 12:21:26;;;;;;;;;;;20.30;99.90;;;;;;4952845;29;19952;-32
2023/09/13 12:23:54;;;;;;;;;;;20.60;99.90;;;;;;4934498;29;19940;-31
2023/09/13 12:26:21;;;;;;;;;;;20.70;99.90;;;;;;4932286;29;19970;-30
2023/09/13 12:28:48;;;;;;;;;;;20.70;99.90;;;;;;4917736;29;20006;-31
2023/09/13 12:31:15;;;;;;;;;;;20.70;99.90;;;;;;4934041;29;19948;-31
2023/09/13 12:33:42;;;;;;;;;;;20.80;99.90;;;;;;4934000;29;19933;-31
2023/09/13 12:36:09;;;;;;;;;;;20.80;99.90;;;;;;4941132;29;20355;-32
2023/09/13 12:38:44;;;;;;;;;;;20.80;99.90;;;;;;4952568;29;19955;-31
2023/09/13 12:41:12;;;;;;;;;;;20.90;99.90;;;;;;4933770;29;19943;-31
2023/09/13 12:43:42;;;;;;;;;;;21.10;99.90;;;;;;4917926;29;19950;-32
2023/09/13 12:46:10;;;;;;;;;;;21.20;99.90;;;;;;4921372;29;19990;-31
2023/09/13 12:48:37;;;;;;;;;;;21.00;99.90;;;;;;4952592;29;20035;-32
2023/09/13 12:51:04;;;;;;;;;;;20.90;99.90;;;;;;4955438;28;19972;-32
2023/09/13 12:53:30;;;;;;;;;;;20.80;99.90;;;;;;4957241;29;20353;-32
2023/09/13 12:55:57;;;;;;;;;;;20.70;99.90;;;;;;4938936;29;19942;-32
2023/09/13 12:58:25;;;;;;;;;;;20.70;99.90;;;;;;4954025;28;19948;-31
2023/09/13 13:00:53;;;;;;;;;;;20.60;99.90;;;;;;4950146;28;20040;-34
2023/09/13 13:03:20;;;;;;;;;;;20.60;99.90;;;;;;4956312;28;19941;-31
2023/09/13 13:05:47;;;;;;;;;;;20.50;99.90;;;;;;4957200;28;20378;-31
2023/09/13 13:08:14;;;;;;;;;;;20.50;99.90;;;;;;4956162;29;19948;-31
2023/09/13 13:10:56;;;;;;;;;;;20.50;99.90;;;;;;4939965;29;20011;-32
2023/09/13 13:13:23;;;;;;;;;;;20.50;99.90;;;;;;4956116;29;19944;-32
2023/09/13 13:15:51;;;;;;;;;;;20.40;99.90;;;;;;4965177;28;19964;-32
2023/09/13 13:18:18;;;;;;;;;;;20.30;99.90;;;;;;4954361;28;19946;-32
2023/09/13 13:20:46;;;;;;;;;;;20.20;99.90;;;;;;4956846;29;20014;-32
2023/09/13 13:23:12;;;;;;;;;;;20.10;99.90;;;;;;4952816;28;20255;-33
2023/09/13 13:25:41;;;;;;;;;;;20.10;99.90;;;;;;4955787;29;19934;-32
2023/09/13 13:28:07;;;;;;;;;;;20.00;99.90;;;;;;4955840;29;20027;-32
2023/09/13 13:30:34;;;;;;;;;;;19.90;99.90;;;;;;4955586;29;19963;-32
2023/09/13 13:33:02;;;;;;;;;;;19.90;99.90;;;;;;4955068;29;19927;-31
2023/09/13 13:35:29;;;;;;;;;;;19.90;99.90;;;;;;4956603;29;19947;-32
2023/09/13 13:37:56;;;;;;;;;;;19.90;99.90;;;;;;4954779;29;19944;-32
2023/09/13 13:40:23;;;;;;;;;;;20.00;99.90;;;;;;4954909;29;19945;-32
2023/09/13 13:42:49;;;;;;;;;;;20.00;99.90;;;;;;4956957;28;19943;-32
2023/09/13 13:45:16;;;;;;;;;;;20.10;99.90;;;;;;4954832;29;20364;-32
2023/09/13 13:47:43;;;;;;;;;;;20.20;99.90;;;;;;4938697;29;20481;-32
2023/09/13 13:50:11;;;;;;;;;;;20.30;99.90;;;;;;4954121;29;19982;-32
2023/09/13 13:52:38;;;;;;;;;;;20.40;99.90;;;;;;4933142;29;19945;-32
2023/09/13 13:55:05;;;;;;;;;;;20.40;99.90;;;;;;4945814;29;19939;-34
2023/09/13 13:57:36;;;;;;;;;;;20.20;99.90;;;;;;4955632;28;20284;-32
2023/09/13 14:00:04;;;;;;;;;;;20.00;99.90;;;;;;4955546;29;19944;-32
2023/09/13 14:02:36;;;;;;;;;;;19.80;99.90;;;;;;4954178;28;20018;-33
2023/09/13 14:05:03;;;;;;;;;;;19.60;99.90;;;;;;4955200;29;19947;-32
2023/09/13 14:07:31;;;;;;;;;;;19.40;99.90;;;;;;4955654;29;19945;-33
2023/09/13 14:09:58;;;;;;;;;;;19.20;99.90;;;;;;4947951;29;19954;-32
2023/09/13 14:12:25;;;;;;;;;;;19.20;99.90;;;;;;4934045;29;20454;-32
2023/09/13 14:14:53;;;;;;;;;;;19.10;99.90;;;;;;4953654;29;20378;-32
2023/09/13 14:17:20;;;;;;;;;;;19.10;99.90;;;;;;4954736;29;20330;-32